Startpagina
METAR-TAF:

METAR-TAF

Vliegvelden :

EuroAirport Basel-Mulhouse-Freiburg

Bazel-Mulhouse, Frankrijk

breedte: 47-36N, lengte: 007-31E, hoogte: 270 m

Actueel weer

Dit bericht is 32 minuten geleden gemaakt, om 09:30 UTC
Wind 6 kt uit het noorden, variërend tussen het noordwesten en het oosten
Temperatuur 22°C
Vochtigheid 41%
Druk 1024 hPa
Zicht 10 km of meer
Weinig wolken op 3300 ft

METAR: LFSB 120930Z 01006KT 320V090 9999 FEW033 22/08 Q1024 NOSIG

Tijdstip: 12:02 (10:02 UTC)

Verwachting

Dit bericht is 5 uur en het 2 minuten geleden gemaakt, om 05:00 UTC
Verwachting geldig van 12 om 06 UTC tot 13 om 06 UTC
Wind 7 kt uit het noorden
Zicht 10 km of meer
geen wolken onder 1500 m en geen cumulonimbus
Kans 30% :
Tijdelijke
van 12 om 14 UTC tot 12 om 19 UTC
Wind 10 kt uit het noordoosten met uitschieters tot 20 kt

TAF: LFSB 120500Z 1206/1306 35007KT CAVOK PROB30 TEMPO 1214/1219 04010G20KT

Waarnemingen en weersverwachtingen van meer dan 4000 vliegvelden (METAR en TAF).

De beschikbare stations zijn de gele en rode punten op de kaart.

Ga met uw muis naar het station om de naam te zien.

Klik dan om waarnemingen en weersverwachtingen te zien.

kaart wijzigen: klik op de groene knoppen met een zwart kruis om in te zoomen, op de groene knop met een streepje om uit te zoomen of op de groene pijlen voor aangrenzende kaarten.


METAR-TAF: